Time;durP1;ratioP1;P1;durP2;ratioP2;P2;SDS_P1;SDS_P2;PMS_P1;PMS_P2;Temp;Humidity;BMP_temperature;BMP_pressure;BME280_temperature;BME280_humidity;BME280_pressure;Samples;Min_cycle;Max_cycle;Signal;HPM_P1;HPM_P2
2023/04/28 00:00:49;;;;;;;11.38;7.68;;;8.20;99.90;;;;;;6278696;22;20015;-73
2023/04/28 00:03:15;;;;;;;13.35;8.48;;;8.10;99.90;;;;;;6305212;22;20027;-73
2023/04/28 00:05:41;;;;;;;12.52;8.18;;;8.20;99.90;;;;;;6277570;22;20047;-73
2023/04/28 00:08:07;;;;;;;14.10;8.77;;;8.10;99.90;;;;;;6277670;22;20042;-73
2023/04/28 00:10:33;;;;;;;14.23;8.15;;;8.10;99.90;;;;;;6278178;22;20023;-72
2023/04/28 00:12:59;;;;;;;11.57;7.60;;;8.10;99.90;;;;;;6277960;22;20026;-74
2023/04/28 00:15:25;;;;;;;17.70;7.45;;;8.10;99.90;;;;;;6305355;22;20023;-73
2023/04/28 00:17:52;;;;;;;13.15;7.90;;;8.10;99.90;;;;;;6277053;22;20431;-73
2023/04/28 00:20:17;;;;;;;11.45;7.13;;;8.00;99.90;;;;;;6277449;22;20482;-73
2023/04/28 00:22:43;;;;;;;11.48;7.97;;;8.00;99.90;;;;;;6280868;22;20152;-73
2023/04/28 00:25:09;;;;;;;14.50;8.02;;;8.00;99.90;;;;;;6306423;22;20019;-73
2023/04/28 00:27:35;;;;;;;8.73;6.40;;;8.00;99.90;;;;;;6306917;22;20023;-76
2023/04/28 00:30:01;;;;;;;11.70;7.68;;;8.00;99.90;;;;;;6306538;22;20020;-72
2023/04/28 00:32:27;;;;;;;11.85;8.05;;;8.00;99.90;;;;;;6279551;22;20027;-73
2023/04/28 00:34:53;;;;;;;10.88;7.55;;;8.00;99.90;;;;;;6279162;22;20058;-73
2023/04/28 00:37:19;;;;;;;16.30;8.60;;;8.00;99.90;;;;;;6278041;22;20019;-73
2023/04/28 00:39:47;;;;;;;11.40;8.00;;;8.00;99.90;;;;;;6304073;22;20023;-73
2023/04/28 00:42:14;;;;;;;13.38;7.55;;;7.90;99.90;;;;;;6276128;22;20026;-73
2023/04/28 00:44:40;;;;;;;14.40;7.47;;;8.00;99.90;;;;;;6276668;22;20029;-73
2023/04/28 00:47:08;;;;;;;12.65;7.35;;;8.00;99.90;;;;;;6276287;22;20027;-74
2023/04/28 00:49:35;;;;;;;13.60;8.45;;;8.00;99.90;;;;;;6275618;22;20016;-73
2023/04/28 00:52:05;;;;;;;14.07;8.20;;;7.90;99.90;;;;;;6276156;22;20374;-74
2023/04/28 00:54:34;;;;;;;14.02;8.35;;;7.90;99.90;;;;;;6304144;22;20019;-74
2023/04/28 00:57:01;;;;;;;14.70;8.05;;;7.90;99.90;;;;;;6303147;22;20027;-73
2023/04/28 00:59:28;;;;;;;11.27;8.10;;;7.90;99.90;;;;;;6275867;22;20367;-74
2023/04/28 01:01:54;;;;;;;11.27;7.30;;;7.70;99.90;;;;;;6275730;22;20023;-73
2023/04/28 01:04:20;;;;;;;13.80;8.10;;;7.70;99.90;;;;;;6275622;22;20049;-73
2023/04/28 01:06:51;;;;;;;13.77;8.40;;;7.70;99.90;;;;;;6276073;22;20646;-73
2023/04/28 01:09:17;;;;;;;13.10;8.32;;;7.80;99.90;;;;;;6276076;22;20027;-74
2023/04/28 01:11:42;;;;;;;10.90;6.80;;;7.80;99.90;;;;;;6273865;22;20419;-73
2023/04/28 01:14:08;;;;;;;12.00;7.20;;;7.70;99.90;;;;;;6303097;22;20098;-73
2023/04/28 01:16:34;;;;;;;13.25;7.80;;;7.80;99.90;;;;;;6274720;22;20030;-73
2023/04/28 01:19:00;;;;;;;12.30;7.90;;;7.70;99.90;;;;;;6275116;22;20022;-73
2023/04/28 01:21:31;;;;;;;13.18;8.18;;;7.70;99.90;;;;;;6275674;22;20081;-73
2023/04/28 01:24:00;;;;;;;13.07;8.23;;;7.70;99.90;;;;;;6275880;22;20027;-74
2023/04/28 01:26:27;;;;;;;12.07;8.40;;;7.70;99.90;;;;;;6275852;22;20103;-73
2023/04/28 01:28:52;;;;;;;13.15;7.90;;;7.80;99.90;;;;;;6250172;22;20054;-76
2023/04/28 01:31:19;;;;;;;11.70;8.07;;;7.70;99.90;;;;;;6275841;22;20354;-72
2023/04/28 01:33:44;;;;;;;13.45;8.82;;;7.70;99.90;;;;;;6249671;22;20021;-73
2023/04/28 01:36:10;;;;;;;12.98;7.18;;;7.70;99.90;;;;;;6275489;22;20023;-73
2023/04/28 01:38:36;;;;;;;14.10;8.20;;;7.70;99.90;;;;;;6275680;22;20419;-73
2023/04/28 01:41:02;;;;;;;13.63;8.10;;;7.80;99.90;;;;;;6303133;22;20494;-73
2023/04/28 01:43:30;;;;;;;12.55;7.82;;;7.70;99.90;;;;;;6303520;22;20454;-75
2023/04/28 01:45:56;;;;;;;13.95;8.30;;;7.80;99.90;;;;;;6303080;22;20015;-73
2023/04/28 01:48:22;;;;;;;13.07;7.68;;;7.70;99.90;;;;;;6250092;22;20019;-74
2023/04/28 01:50:47;;;;;;;14.23;7.97;;;7.70;99.90;;;;;;6303106;22;20049;-73
2023/04/28 01:53:13;;;;;;;13.05;7.80;;;7.70;99.90;;;;;;6275577;22;20058;-73
2023/04/28 01:55:39;;;;;;;11.52;8.40;;;7.70;99.90;;;;;;6249979;22;20389;-72
2023/04/28 01:58:06;;;;;;;12.95;7.97;;;7.70;99.90;;;;;;6303393;22;20068;-73
2023/04/28 02:00:31;;;;;;;13.45;9.15;;;7.60;99.90;;;;;;6275550;22;20382;-73
2023/04/28 02:02:57;;;;;;;12.05;7.88;;;7.60;99.90;;;;;;6275125;22;20027;-73
2023/04/28 02:05:23;;;;;;;14.30;8.70;;;7.70;99.90;;;;;;6275359;22;20034;-73
2023/04/28 02:07:48;;;;;;;14.40;8.65;;;7.60;99.90;;;;;;6303094;22;20015;-73
2023/04/28 02:10:14;;;;;;;18.95;7.88;;;7.70;99.90;;;;;;6275209;22;20019;-73
2023/04/28 02:12:41;;;;;;;13.63;7.88;;;7.60;99.90;;;;;;6302758;22;20042;-73
2023/04/28 02:15:08;;;;;;;16.00;7.75;;;7.60;99.90;;;;;;6274798;22;20027;-73
2023/04/28 02:17:33;;;;;;;18.83;8.45;;;7.70;99.90;;;;;;6302814;22;20015;-73
2023/04/28 02:19:59;;;;;;;16.08;9.48;;;7.70;99.90;;;;;;6302275;22;20034;-73
2023/04/28 02:22:25;;;;;;;12.95;8.07;;;7.70;99.90;;;;;;6274566;22;20474;-73
2023/04/28 02:24:51;;;;;;;12.85;7.93;;;7.70;99.90;;;;;;6275292;22;20401;-73
2023/04/28 02:27:17;;;;;;;12.93;7.85;;;7.60;99.90;;;;;;6274921;22;20027;-74
2023/04/28 02:29:43;;;;;;;12.77;7.40;;;7.70;99.90;;;;;;6302595;22;20022;-73
2023/04/28 02:32:08;;;;;;;13.20;8.48;;;7.70;99.90;;;;;;6274998;22;20382;-73
2023/04/28 02:34:34;;;;;;;16.10;8.88;;;7.70;99.90;;;;;;6302682;22;20038;-73
2023/04/28 02:37:00;;;;;;;12.02;7.63;;;7.70;99.90;;;;;;6302684;22;20103;-73
2023/04/28 02:39:26;;;;;;;14.18;8.30;;;7.60;99.90;;;;;;6302501;22;20015;-73
2023/04/28 02:41:53;;;;;;;17.48;7.90;;;7.60;99.90;;;;;;6302259;22;20030;-73
2023/04/28 02:44:19;;;;;;;14.63;8.07;;;7.60;99.90;;;;;;6249024;22;20382;-73
2023/04/28 02:46:45;;;;;;;13.63;8.38;;;7.60;99.90;;;;;;6302746;22;20015;-73
2023/04/28 02:49:11;;;;;;;13.25;9.18;;;7.60;99.90;;;;;;6302757;22;20439;-73
2023/04/28 02:51:37;;;;;;;16.50;8.00;;;7.60;99.90;;;;;;6302229;22;20425;-73
2023/04/28 02:54:03;;;;;;;14.90;9.23;;;7.60;99.90;;;;;;6274920;22;20018;-73
2023/04/28 02:56:29;;;;;;;13.55;8.18;;;7.60;99.90;;;;;;6274414;22;20450;-73
2023/04/28 02:58:55;;;;;;;17.58;8.60;;;7.60;99.90;;;;;;6274449;22;20015;-73
2023/04/28 03:01:21;;;;;;;16.45;8.40;;;7.60;99.90;;;;;;6274603;22;20015;-73
2023/04/28 03:03:47;;;;;;;16.92;8.65;;;7.60;99.90;;;;;;6274460;22;20019;-73
2023/04/28 03:06:13;;;;;;;16.45;8.88;;;7.50;99.90;;;;;;6274606;22;20121;-72
2023/04/28 03:08:38;;;;;;;15.27;10.43;;;7.50;99.90;;;;;;6274830;22;20027;-73
2023/04/28 03:11:05;;;;;;;14.57;8.77;;;7.50;99.90;;;;;;6249162;22;20074;-72
2023/04/28 03:13:31;;;;;;;14.45;8.25;;;7.60;99.90;;;;;;6273869;22;20078;-74
2023/04/28 03:15:57;;;;;;;13.93;8.18;;;7.60;99.90;;;;;;6302576;22;20023;-73
2023/04/28 03:18:22;;;;;;;14.45;8.95;;;7.50;99.90;;;;;;6274644;22;20038;-73
2023/04/28 03:20:49;;;;;;;12.05;7.75;;;7.60;99.90;;;;;;6274586;22;20354;-73
2023/04/28 03:23:15;;;;;;;12.13;8.13;;;7.50;99.90;;;;;;6303210;22;20312;-73
2023/04/28 03:25:41;;;;;;;17.77;8.95;;;7.60;99.90;;;;;;6274442;22;20098;-73
2023/04/28 03:28:06;;;;;;;13.32;8.23;;;7.50;99.90;;;;;;6274395;22;20103;-74
2023/04/28 03:30:32;;;;;;;13.35;8.00;;;7.60;99.90;;;;;;6274290;22;20590;-73
2023/04/28 03:32:58;;;;;;;14.18;8.63;;;7.60;99.90;;;;;;6274540;22;20029;-73
2023/04/28 03:35:23;;;;;;;13.95;8.32;;;7.50;99.90;;;;;;6248971;22;20027;-73
2023/04/28 03:37:49;;;;;;;12.85;7.78;;;7.50;99.90;;;;;;6301983;22;20098;-74
2023/04/28 03:40:15;;;;;;;13.50;8.27;;;7.40;99.90;;;;;;6302108;22;20015;-73
2023/04/28 03:42:41;;;;;;;15.57;8.70;;;7.50;99.90;;;;;;6274342;22;20049;-73
2023/04/28 03:45:07;;;;;;;14.63;7.65;;;7.40;99.90;;;;;;6274576;22;20023;-73
2023/04/28 03:47:33;;;;;;;12.75;8.13;;;7.40;99.90;;;;;;6301962;22;20328;-73
2023/04/28 03:49:59;;;;;;;13.45;7.70;;;7.40;99.90;;;;;;6302374;22;20015;-73
2023/04/28 03:52:26;;;;;;;17.00;9.57;;;7.40;99.90;;;;;;6274321;22;20490;-73
2023/04/28 03:54:52;;;;;;;13.70;8.48;;;7.50;99.90;;;;;;6274495;22;20022;-73
2023/04/28 03:57:17;;;;;;;16.30;9.18;;;7.50;99.90;;;;;;6273984;22;20027;-73
2023/04/28 03:59:43;;;;;;;13.60;8.02;;;7.40;99.90;;;;;;6302148;22;20130;-73
2023/04/28 04:02:08;;;;;;;14.18;8.02;;;7.40;99.90;;;;;;6301980;22;20015;-73
2023/04/28 04:04:34;;;;;;;13.00;8.27;;;7.50;99.90;;;;;;6302229;22;20020;-73
2023/04/28 04:07:01;;;;;;;13.95;7.80;;;7.40;99.90;;;;;;6301973;22;20443;-73
2023/04/28 04:09:26;;;;;;;14.57;7.82;;;7.40;99.90;;;;;;6301858;22;20026;-72
2023/04/28 04:11:52;;;;;;;15.27;7.90;;;7.50;99.90;;;;;;6301887;22;20023;-74
2023/04/28 04:14:18;;;;;;;12.30;7.47;;;7.50;99.90;;;;;;6274578;22;20023;-74
2023/04/28 04:16:45;;;;;;;12.73;8.35;;;7.50;99.90;;;;;;6248525;22;20050;-74
2023/04/28 04:19:10;;;;;;;15.18;8.23;;;7.50;99.90;;;;;;6274601;22;20433;-73
2023/04/28 04:21:36;;;;;;;14.75;8.38;;;7.50;99.90;;;;;;6274432;22;20016;-73
2023/04/28 04:24:02;;;;;;;17.02;8.90;;;7.40;99.90;;;;;;6302267;22;20088;-73
2023/04/28 04:26:27;;;;;;;13.85;8.30;;;7.50;99.90;;;;;;6276217;22;20071;-73
2023/04/28 04:28:53;;;;;;;11.65;7.40;;;7.50;99.90;;;;;;6304158;22;20042;-73
2023/04/28 04:31:19;;;;;;;13.77;7.70;;;7.50;99.90;;;;;;6303630;22;20545;-73
2023/04/28 04:33:45;;;;;;;12.80;7.85;;;7.50;99.90;;;;;;6303702;22;20121;-73
2023/04/28 04:36:11;;;;;;;17.20;7.90;;;7.50;99.90;;;;;;6303739;22;20015;-73
2023/04/28 04:38:37;;;;;;;12.80;8.05;;;7.50;99.90;;;;;;6276032;22;20045;-73
2023/04/28 04:41:03;;;;;;;16.05;8.18;;;7.50;99.90;;;;;;6275193;22;20094;-73
2023/04/28 04:43:28;;;;;;;17.40;8.65;;;7.50;99.90;;;;;;6250401;22;20026;-73
2023/04/28 04:45:54;;;;;;;12.45;7.55;;;7.50;99.90;;;;;;6275934;22;20055;-73
2023/04/28 04:48:20;;;;;;;14.23;8.65;;;7.50;99.90;;;;;;6276076;22;20023;-73
2023/04/28 04:50:46;;;;;;;11.85;7.07;;;7.40;99.90;;;;;;6303720;22;20145;-73
2023/04/28 04:53:11;;;;;;;14.45;7.38;;;7.40;99.90;;;;;;6250500;22;20020;-73
2023/04/28 04:55:37;;;;;;;14.45;7.90;;;7.50;99.90;;;;;;6303496;22;20051;-73
2023/04/28 04:58:03;;;;;;;14.63;6.95;;;7.50;99.90;;;;;;6275552;22;20057;-73
2023/04/28 05:00:29;;;;;;;13.95;7.97;;;7.40;99.90;;;;;;6303414;22;20129;-73
2023/04/28 05:02:55;;;;;;;13.52;7.50;;;7.40;99.90;;;;;;6303040;22;20044;-73
2023/04/28 05:05:20;;;;;;;13.20;8.02;;;7.50;99.90;;;;;;6276307;22;20042;-73
2023/04/28 05:07:46;;;;;;;14.13;8.05;;;7.50;99.90;;;;;;6250183;22;20026;-73
2023/04/28 05:10:12;;;;;;;11.82;7.57;;;7.50;99.90;;;;;;6275433;22;20023;-73
2023/04/28 05:12:38;;;;;;;13.98;7.53;;;7.50;99.90;;;;;;6274778;22;20094;-73
2023/04/28 05:15:05;;;;;;;13.90;7.72;;;7.50;99.90;;;;;;6275085;22;20351;-73
2023/04/28 05:17:31;;;;;;;14.57;7.00;;;7.50;99.90;;;;;;6275330;22;20110;-74
2023/04/28 05:19:57;;;;;;;14.75;7.22;;;7.50;99.90;;;;;;6275234;22;20126;-74
2023/04/28 05:22:23;;;;;;;15.98;8.00;;;7.50;99.90;;;;;;6275356;22;20054;-74
2023/04/28 05:24:48;;;;;;;11.20;7.72;;;7.60;99.90;;;;;;6274942;22;20015;-73
2023/04/28 05:27:14;;;;;;;17.00;7.70;;;7.60;99.90;;;;;;6275581;22;20522;-74
2023/04/28 05:29:41;;;;;;;14.98;8.35;;;7.60;99.90;;;;;;6303277;22;20044;-73
2023/04/28 05:32:06;;;;;;;14.30;8.40;;;7.60;99.90;;;;;;6302800;22;20475;-73
2023/04/28 05:34:32;;;;;;;13.45;8.23;;;7.70;99.90;;;;;;6249478;22;20019;-73
2023/04/28 05:36:57;;;;;;;9.77;6.82;;;7.60;99.90;;;;;;6274734;22;20354;-73
2023/04/28 05:39:23;;;;;;;15.32;8.23;;;7.60;99.90;;;;;;6275104;22;20086;-74
2023/04/28 05:41:49;;;;;;;11.65;7.63;;;7.60;99.90;;;;;;6303065;22;20023;-74
2023/04/28 05:44:15;;;;;;;12.75;7.95;;;7.60;99.90;;;;;;6302576;22;20324;-73
2023/04/28 05:46:40;;;;;;;14.48;8.00;;;7.60;99.90;;;;;;6303080;22;20046;-74
2023/04/28 05:49:06;;;;;;;12.38;7.78;;;7.70;99.90;;;;;;6303154;22;20027;-73
2023/04/28 05:51:32;;;;;;;13.80;8.43;;;7.70;99.90;;;;;;6274974;22;20022;-73
2023/04/28 05:53:58;;;;;;;18.33;7.85;;;7.70;99.90;;;;;;6274501;22;20047;-74
2023/04/28 05:56:24;;;;;;;12.30;7.72;;;7.70;99.90;;;;;;6271341;22;20026;-74
2023/04/28 05:58:50;;;;;;;17.73;7.78;;;7.70;99.90;;;;;;6302594;22;20035;-74
2023/04/28 06:01:16;;;;;;;10.35;7.15;;;7.80;99.90;;;;;;6275127;22;20069;-73
2023/04/28 06:03:42;;;;;;;13.40;7.63;;;7.80;99.90;;;;;;6275019;22;20132;-73
2023/04/28 06:06:11;;;;;;;10.52;7.28;;;7.80;99.90;;;;;;6275016;22;20534;-73
2023/04/28 06:08:37;;;;;;;11.65;7.75;;;7.80;99.90;;;;;;6275044;22;20046;-73
2023/04/28 06:11:06;;;;;;;13.43;8.45;;;7.80;99.90;;;;;;6249358;22;20082;-73
2023/04/28 06:13:31;;;;;;;14.07;7.63;;;7.90;99.90;;;;;;6302446;22;20054;-73
2023/04/28 06:15:57;;;;;;;14.70;7.57;;;7.90;99.90;;;;;;6274723;22;20447;-73
2023/04/28 06:18:23;;;;;;;15.80;7.47;;;7.90;99.90;;;;;;6274801;22;20019;-75
2023/04/28 06:20:49;;;;;;;10.55;6.95;;;7.90;99.90;;;;;;6274975;22;20501;-73
2023/04/28 06:23:15;;;;;;;10.07;6.63;;;7.80;99.90;;;;;;6302429;22;20075;-73
2023/04/28 06:25:41;;;;;;;12.60;7.15;;;7.90;99.90;;;;;;6302548;22;20015;-73
2023/04/28 06:28:06;;;;;;;13.18;7.28;;;7.90;99.90;;;;;;6302777;22;20087;-73
2023/04/28 06:30:34;;;;;;;15.70;7.68;;;7.90;99.90;;;;;;6302830;22;20331;-73
2023/04/28 06:33:00;;;;;;;12.20;6.97;;;8.00;99.90;;;;;;6274982;22;20072;-73
2023/04/28 06:35:27;;;;;;;11.68;7.38;;;8.00;99.90;;;;;;6275036;22;20019;-73
2023/04/28 06:37:52;;;;;;;12.30;6.72;;;8.00;99.90;;;;;;6302580;22;20027;-73
2023/04/28 06:40:18;;;;;;;18.95;7.68;;;8.00;99.90;;;;;;6302609;22;20015;-73
2023/04/28 06:42:44;;;;;;;12.77;7.25;;;8.10;99.90;;;;;;6274853;22;20026;-73
2023/04/28 06:45:10;;;;;;;13.23;8.07;;;8.10;99.90;;;;;;6275014;22;20023;-72
2023/04/28 06:47:36;;;;;;;10.45;6.53;;;8.10;99.90;;;;;;6249312;22;20411;-73
2023/04/28 06:50:02;;;;;;;10.75;6.68;;;8.10;99.90;;;;;;6274598;22;20019;-74
2023/04/28 06:52:29;;;;;;;13.82;7.28;;;8.10;99.90;;;;;;6302168;22;20017;-73
2023/04/28 06:54:55;;;;;;;9.85;6.60;;;8.20;99.90;;;;;;6274982;22;20029;-74
2023/04/28 06:57:21;;;;;;;13.23;7.50;;;8.20;99.90;;;;;;6249310;22;20098;-76
2023/04/28 06:59:47;;;;;;;9.40;6.70;;;8.30;99.90;;;;;;6275053;22;20023;-74
2023/04/28 07:02:12;;;;;;;12.13;6.90;;;8.30;99.90;;;;;;6274644;22;20030;-74
2023/04/28 07:04:38;;;;;;;10.80;6.53;;;8.30;99.90;;;;;;6274609;22;20116;-76
2023/04/28 07:07:08;;;;;;;13.65;6.75;;;8.30;99.90;;;;;;6248866;22;20783;-74
2023/04/28 07:09:34;;;;;;;11.90;6.53;;;8.40;99.90;;;;;;6302453;22;20468;-74
2023/04/28 07:12:00;;;;;;;10.07;5.82;;;8.40;99.90;;;;;;6249231;22;20130;-74
2023/04/28 07:14:26;;;;;;;10.18;6.82;;;8.40;99.90;;;;;;6274653;22;20023;-74
2023/04/28 07:16:52;;;;;;;8.73;6.47;;;8.40;99.90;;;;;;6274696;22;20769;-75
2023/04/28 07:19:17;;;;;;;9.23;6.25;;;8.50;99.90;;;;;;6274503;22;20027;-75
2023/04/28 07:21:43;;;;;;;10.43;6.90;;;8.50;99.90;;;;;;6274627;22;20030;-74
2023/04/28 07:24:09;;;;;;;10.48;6.38;;;8.50;99.90;;;;;;6274320;22;20023;-74
2023/04/28 07:26:35;;;;;;;8.07;6.18;;;8.60;99.90;;;;;;6274465;22;20037;-74
2023/04/28 07:29:00;;;;;;;12.15;6.82;;;8.60;99.90;;;;;;6274753;22;20030;-74
2023/04/28 07:31:27;;;;;;;10.43;6.65;;;8.60;99.90;;;;;;6274401;22;20176;-74
2023/04/28 07:33:53;;;;;;;9.73;6.28;;;8.60;99.90;;;;;;6274524;22;20300;-74
2023/04/28 07:36:20;;;;;;;11.52;6.25;;;8.70;99.90;;;;;;6274324;22;20015;-74
2023/04/28 07:38:45;;;;;;;11.30;6.50;;;8.70;99.90;;;;;;6274829;22;20019;-75
2023/04/28 07:41:11;;;;;;;8.45;6.13;;;8.80;99.90;;;;;;6274778;22;20439;-73
2023/04/28 07:43:37;;;;;;;11.02;6.22;;;8.90;99.90;;;;;;6274801;22;20336;-74
2023/04/28 07:46:03;;;;;;;8.30;5.68;;;8.90;99.90;;;;;;6274843;22;20023;-73
2023/04/28 07:48:29;;;;;;;9.50;6.15;;;9.00;99.90;;;;;;6273972;22;20019;-74
2023/04/28 07:50:55;;;;;;;8.00;6.32;;;9.00;99.90;;;;;;6274450;22;20053;-74
2023/04/28 07:53:21;;;;;;;11.15;6.28;;;9.10;99.90;;;;;;6274858;22;20053;-74
2023/04/28 07:55:46;;;;;;;10.15;6.63;;;9.20;99.90;;;;;;6301820;22;20085;-74
2023/04/28 07:58:12;;;;;;;9.07;6.85;;;9.20;99.90;;;;;;6274480;22;20038;-74
2023/04/28 08:00:38;;;;;;;9.80;6.40;;;9.30;99.90;;;;;;6303424;22;20058;-74
2023/04/28 08:03:03;;;;;;;9.38;6.63;;;9.30;99.90;;;;;;6304928;22;20030;-74
2023/04/28 08:05:30;;;;;;;10.38;6.28;;;9.40;99.90;;;;;;6275260;22;20023;-74
2023/04/28 08:07:56;;;;;;;9.30;6.65;;;9.50;99.90;;;;;;6275323;22;20432;-74
2023/04/28 08:10:22;;;;;;;8.68;5.95;;;9.50;99.90;;;;;;6276431;22;20115;-74
2023/04/28 08:12:48;;;;;;;11.63;6.13;;;9.50;99.90;;;;;;6304174;22;20019;-74
2023/04/28 08:15:13;;;;;;;11.77;6.43;;;9.50;99.90;;;;;;6276189;22;20019;-74
2023/04/28 08:17:40;;;;;;;12.10;6.63;;;9.60;99.90;;;;;;6303811;22;20019;-74
2023/04/28 08:20:06;;;;;;;11.57;6.55;;;9.50;99.90;;;;;;6303829;22;20056;-74
2023/04/28 08:22:33;;;;;;;10.60;6.68;;;9.60;99.90;;;;;;6304016;22;20012;-74
2023/04/28 08:24:58;;;;;;;10.18;6.72;;;9.70;99.90;;;;;;6303823;22;20030;-73
2023/04/28 08:27:24;;;;;;;11.15;6.32;;;9.70;99.90;;;;;;6303805;22;20023;-73
2023/04/28 08:29:50;;;;;;;10.57;6.32;;;9.60;99.90;;;;;;6276181;22;20020;-74
2023/04/28 08:32:16;;;;;;;13.18;6.75;;;9.80;99.90;;;;;;6275777;22;20080;-73
2023/04/28 08:34:42;;;;;;;16.65;6.63;;;9.80;99.90;;;;;;6303534;22;20023;-73
2023/04/28 08:37:08;;;;;;;11.63;6.70;;;9.80;99.90;;;;;;6275895;22;20026;-73
2023/04/28 08:39:34;;;;;;;13.20;7.18;;;9.90;99.90;;;;;;6275911;22;20098;-73
2023/04/28 08:42:03;;;;;;;10.27;6.55;;;10.00;99.90;;;;;;6275501;22;20372;-73
2023/04/28 08:44:37;;;;;;;12.43;6.95;;;10.10;99.90;;;;;;6275881;22;20023;-72
2023/04/28 08:47:13;;;;;;;9.95;6.38;;;10.20;99.90;;;;;;6303170;22;20034;-73
2023/04/28 08:49:39;;;;;;;11.93;6.85;;;10.20;99.90;;;;;;6303573;22;20100;-72
2023/04/28 08:52:16;;;;;;;10.57;7.28;;;10.30;99.90;;;;;;6275972;22;20413;-73
2023/04/28 08:54:43;;;;;;;11.60;6.82;;;10.30;99.90;;;;;;6276265;22;20019;-73
2023/04/28 08:57:10;;;;;;;11.75;7.05;;;10.40;99.90;;;;;;6272343;22;20027;-73
2023/04/28 08:59:40;;;;;;;11.73;7.20;;;10.40;99.90;;;;;;6303578;22;20022;-72
2023/04/28 09:02:09;;;;;;;12.02;7.65;;;10.40;99.90;;;;;;6303143;22;20007;-73
2023/04/28 09:04:35;;;;;;;11.90;6.85;;;10.40;99.90;;;;;;6275263;22;20443;-73
2023/04/28 09:07:01;;;;;;;9.93;6.93;;;10.40;99.90;;;;;;6275735;22;20023;-72
2023/04/28 09:09:29;;;;;;;10.18;6.88;;;10.60;99.90;;;;;;6302766;22;20022;-72
2023/04/28 09:11:58;;;;;;;12.18;7.78;;;10.60;99.90;;;;;;6303209;22;20457;-74
2023/04/28 09:14:25;;;;;;;10.32;7.35;;;10.70;99.90;;;;;;6275703;22;20015;-74
2023/04/28 09:16:51;;;;;;;12.27;7.15;;;10.80;99.90;;;;;;6275865;22;20128;-75
2023/04/28 09:19:17;;;;;;;11.95;7.00;;;10.80;99.90;;;;;;6275968;22;20083;-75
2023/04/28 09:21:52;;;;;;;10.88;8.00;;;10.90;99.90;;;;;;6276533;22;20355;-74
2023/04/28 09:24:28;;;;;;;14.65;7.43;;;11.00;99.90;;;;;;6276062;22;20023;-72
2023/04/28 09:26:54;;;;;;;11.30;7.18;;;11.10;99.90;;;;;;6303439;22;20068;-72
2023/04/28 09:29:20;;;;;;;13.07;7.50;;;11.10;99.90;;;;;;6303108;22;20011;-72
2023/04/28 09:31:46;;;;;;;17.33;7.55;;;11.20;99.90;;;;;;6275036;22;20018;-71
2023/04/28 09:34:12;;;;;;;11.43;7.43;;;11.30;99.90;;;;;;6303432;22;20382;-71
2023/04/28 09:36:37;;;;;;;14.20;7.90;;;11.40;99.90;;;;;;6303299;22;20023;-72
2023/04/28 09:39:03;;;;;;;10.32;7.20;;;11.50;99.90;;;;;;6275447;22;20031;-73
2023/04/28 09:41:37;;;;;;;11.52;7.75;;;11.50;99.90;;;;;;6275859;22;20019;-73
2023/04/28 09:44:12;;;;;;;12.07;7.40;;;11.60;99.90;;;;;;6275704;22;20110;-73
2023/04/28 09:46:39;;;;;;;8.73;6.70;;;11.70;99.90;;;;;;6302774;22;20101;-74
2023/04/28 09:49:04;;;;;;;11.70;7.15;;;11.70;99.90;;;;;;6303112;22;20011;-72
2023/04/28 09:51:31;;;;;;;10.63;7.88;;;11.70;99.90;;;;;;6303225;22;20015;-74
2023/04/28 09:54:00;;;;;;;8.80;6.78;;;11.70;99.90;;;;;;6302888;22;20050;-72
2023/04/28 09:56:30;;;;;;;11.32;7.72;;;11.60;99.90;;;;;;6272868;22;20026;-71
2023/04/28 09:59:00;;;;;;;12.40;8.00;;;11.70;99.90;;;;;;6240706;22;20089;-72
2023/04/28 10:01:44;;;;;;;13.88;8.07;;;11.70;99.90;;;;;;6243104;22;20399;-72
2023/04/28 10:04:11;;;;;;;11.43;7.95;;;11.80;99.90;;;;;;6218630;22;20112;-72
2023/04/28 10:06:38;;;;;;;14.27;8.35;;;11.80;99.90;;;;;;6244417;22;20028;-72
2023/04/28 10:09:05;;;;;;;9.77;7.75;;;12.10;99.90;;;;;;6244676;22;20098;-72
2023/04/28 10:11:32;;;;;;;11.63;7.80;;;12.10;99.90;;;;;;6244392;22;20020;-72
2023/04/28 10:13:58;;;;;;;11.10;7.88;;;12.40;99.90;;;;;;6244129;22;20020;-74
2023/04/28 10:16:29;;;;;;;12.32;7.57;;;12.40;99.90;;;;;;6244390;22;20324;-72
2023/04/28 10:18:56;;;;;;;12.73;7.72;;;12.60;99.90;;;;;;6271924;22;20023;-72
2023/04/28 10:21:23;;;;;;;13.25;8.75;;;12.80;99.90;;;;;;6272103;22;20141;-72
2023/04/28 10:24:14;;;;;;;16.30;7.95;;;13.10;99.90;;;;;;6244048;22;20022;-72
2023/04/28 10:27:08;;;;;;;14.43;7.65;;;13.00;99.90;;;;;;6244452;22;20027;-72
2023/04/28 10:29:35;;;;;;;12.25;8.15;;;13.00;99.90;;;;;;6244450;22;20091;-72
2023/04/28 10:32:21;;;;;;;12.52;7.82;;;13.00;99.90;;;;;;6271768;22;20069;-72
2023/04/28 10:34:47;;;;;;;13.50;7.68;;;13.20;99.90;;;;;;6271647;22;20046;-72
2023/04/28 10:37:14;;;;;;;11.00;7.63;;;13.20;99.90;;;;;;6243964;22;20447;-72
2023/04/28 10:40:00;;;;;;;10.05;7.15;;;13.30;99.90;;;;;;6244758;22;20346;-72
2023/04/28 10:42:51;;;;;;;10.70;7.80;;;13.50;99.90;;;;;;6268669;22;20023;-72
2023/04/28 10:45:52;;;;;;;10.95;8.10;;;13.50;99.90;;;;;;6243613;22;20032;-72
2023/04/28 10:48:18;;;;;;;10.85;7.18;;;13.50;99.90;;;;;;6243437;22;20541;-72
2023/04/28 10:51:03;;;;;;;9.73;7.05;;;13.50;99.90;;;;;;6243593;22;20012;-73
2023/04/28 10:53:44;;;;;;;11.15;7.40;;;13.50;99.90;;;;;;6218858;22;20024;-72
2023/04/28 10:56:18;;;;;;;11.18;7.13;;;13.60;99.90;;;;;;6243890;22;20038;-72
2023/04/28 10:58:49;;;;;;;10.13;7.15;;;13.50;99.90;;;;;;6246365;22;20019;-72
2023/04/28 11:01:20;;;;;;;12.20;8.65;;;13.60;99.90;;;;;;6301118;22;20019;-71
2023/04/28 11:03:46;;;;;;;12.10;7.10;;;13.50;99.90;;;;;;6274135;22;20034;-73
2023/04/28 11:06:24;;;;;;;12.63;7.68;;;13.50;99.90;;;;;;6274344;22;20019;-73
2023/04/28 11:08:50;;;;;;;10.60;7.22;;;13.40;99.90;;;;;;6274718;22;20023;-74
2023/04/28 11:11:21;;;;;;;9.40;7.43;;;13.50;99.90;;;;;;6301922;22;20065;-73
2023/04/28 11:13:48;;;;;;;9.05;6.88;;;13.40;99.90;;;;;;6301857;22;20033;-74
2023/04/28 11:16:16;;;;;;;12.55;7.10;;;13.40;99.90;;;;;;6302503;22;20019;-73
2023/04/28 11:18:52;;;;;;;12.32;7.93;;;13.40;99.90;;;;;;6302122;22;20011;-74
2023/04/28 11:21:22;;;;;;;11.32;6.78;;;13.40;99.90;;;;;;6274893;22;20023;-73
2023/04/28 11:23:48;;;;;;;8.93;6.82;;;13.40;99.90;;;;;;6302176;22;20102;-74
2023/04/28 11:26:14;;;;;;;11.52;6.07;;;13.40;99.90;;;;;;6274662;22;20015;-73
2023/04/28 11:28:54;;;;;;;10.68;6.13;;;13.40;99.90;;;;;;6275094;22;20355;-73
2023/04/28 11:31:23;;;;;;;10.23;6.05;;;13.40;99.90;;;;;;6302697;22;20388;-73
2023/04/28 11:33:50;;;;;;;6.78;5.78;;;13.40;99.90;;;;;;6302519;22;20027;-74
2023/04/28 11:36:27;;;;;;;8.70;5.68;;;13.40;99.90;;;;;;6304401;22;20054;-73
2023/04/28 11:38:55;;;;;;;10.80;6.28;;;13.50;99.90;;;;;;6304738;22;20026;-74
2023/04/28 11:41:21;;;;;;;7.75;6.05;;;13.50;99.90;;;;;;6276513;22;20351;-73
2023/04/28 11:43:47;;;;;;;7.70;5.75;;;13.50;99.90;;;;;;6276641;22;20050;-74
2023/04/28 11:46:18;;;;;;;7.18;5.85;;;13.60;99.90;;;;;;6276540;22;20133;-73
2023/04/28 11:48:44;;;;;;;8.38;6.35;;;13.60;99.90;;;;;;6276707;22;20027;-73
2023/04/28 11:51:26;;;;;;;9.02;6.75;;;13.60;99.90;;;;;;6276760;22;20351;-73
2023/04/28 11:53:52;;;;;;;9.35;6.40;;;13.60;99.90;;;;;;6277025;22;20514;-74
2023/04/28 11:56:18;;;;;;;7.28;5.13;;;13.70;99.90;;;;;;6304506;22;20047;-73
2023/04/28 11:58:44;;;;;;;11.65;6.72;;;13.60;99.90;;;;;;6301056;22;20106;-74
2023/04/28 12:01:14;;;;;;;11.63;6.97;;;13.60;99.90;;;;;;6277088;22;20485;-73
2023/04/28 12:03:47;;;;;;;9.07;6.60;;;13.60;99.90;;;;;;6276580;22;20030;-74
2023/04/28 12:06:17;;;;;;;;;;;13.60;99.90;;;;;;6304825;22;20031;-74
2023/04/28 12:08:43;;;;;;;10.38;6.95;;;13.60;99.90;;;;;;6304279;22;19919;-74
2023/04/28 12:11:13;;;;;;;12.70;7.43;;;13.60;99.90;;;;;;6276208;22;20535;-73
2023/04/28 12:13:39;;;;;;;10.55;8.13;;;13.50;99.90;;;;;;6304261;22;20316;-73
2023/04/28 12:16:08;;;;;;;13.05;7.80;;;13.50;99.90;;;;;;6276329;22;20033;-74
2023/04/28 12:18:35;;;;;;;10.63;7.65;;;13.50;99.90;;;;;;6276409;22;20077;-74
2023/04/28 12:21:01;;;;;;;13.10;8.50;;;13.60;99.90;;;;;;6276316;22;20025;-73
2023/04/28 12:23:31;;;;;;;12.27;8.70;;;13.50;99.90;;;;;;6302341;22;20030;-76
2023/04/28 12:25:57;;;;;;;14.00;8.77;;;13.60;99.90;;;;;;6274593;22;20077;-75
2023/04/28 12:28:35;;;;;;;13.70;9.18;;;13.60;99.90;;;;;;6274695;22;20034;-75
2023/04/28 12:31:07;;;;;;;15.05;9.65;;;13.50;99.90;;;;;;6274403;22;20020;-75
2023/04/28 12:33:36;;;;;;;15.00;10.30;;;13.50;99.90;;;;;;6275051;22;20057;-76
2023/04/28 12:36:03;;;;;;;16.50;11.30;;;13.40;99.90;;;;;;6276238;22;20023;-76
2023/04/28 12:38:29;;;;;;;15.07;9.50;;;13.40;99.90;;;;;;6303717;22;20015;-75
2023/04/28 12:40:55;;;;;;;15.20;9.80;;;13.40;99.90;;;;;;6303162;22;20022;-75
2023/04/28 12:43:22;;;;;;;17.75;11.07;;;13.40;99.90;;;;;;6302359;22;20015;-75
2023/04/28 12:45:53;;;;;;;19.52;12.95;;;13.30;99.90;;;;;;6303020;22;20111;-75